sensor_id;sensor_type;location;lat;lon;timestamp;temperature;humidity
47861;HTU21D;33620;52.340;5.984;2023-05-17T00:01:50;11.00;83.32
47861;HTU21D;33620;52.340;5.984;2023-05-17T00:04:15;11.00;83.41
47861;HTU21D;33620;52.340;5.984;2023-05-17T00:06:41;11.03;83.37
47861;HTU21D;33620;52.340;5.984;2023-05-17T00:09:06;11.01;83.23
47861;HTU21D;33620;52.340;5.984;2023-05-17T00:11:31;11.01;83.08
47861;HTU21D;33620;52.340;5.984;2023-05-17T00:13:57;11.01;83.08
47861;HTU21D;33620;52.340;5.984;2023-05-17T00:16:22;10.97;83.01
47861;HTU21D;33620;52.340;5.984;2023-05-17T00:18:47;10.89;83.28
47861;HTU21D;33620;52.340;5.984;2023-05-17T00:21:13;10.90;83.68
47861;HTU21D;33620;52.340;5.984;2023-05-17T00:23:38;10.88;83.65
47861;HTU21D;33620;52.340;5.984;2023-05-17T00:26:03;10.86;83.55
47861;HTU21D;33620;52.340;5.984;2023-05-17T00:28:28;10.83;83.66
47861;HTU21D;33620;52.340;5.984;2023-05-17T00:30:54;10.79;83.75
47861;HTU21D;33620;52.340;5.984;2023-05-17T00:33:19;10.75;83.66
47861;HTU21D;33620;52.340;5.984;2023-05-17T00:35:44;10.71;83.76
47861;HTU21D;33620;52.340;5.984;2023-05-17T00:38:09;10.67;83.87
47861;HTU21D;33620;52.340;5.984;2023-05-17T00:40:35;10.69;84.18
47861;HTU21D;33620;52.340;5.984;2023-05-17T00:43:00;10.70;84.23
47861;HTU21D;33620;52.340;5.984;2023-05-17T00:45:26;10.72;83.94
47861;HTU21D;33620;52.340;5.984;2023-05-17T00:47:51;10.73;83.97
47861;HTU21D;33620;52.340;5.984;2023-05-17T00:50:16;10.70;83.81
47861;HTU21D;33620;52.340;5.984;2023-05-17T00:52:42;10.63;84.19
47861;HTU21D;33620;52.340;5.984;2023-05-17T00:55:07;10.58;84.58
47861;HTU21D;33620;52.340;5.984;2023-05-17T00:57:33;10.53;84.94
47861;HTU21D;33620;52.340;5.984;2023-05-17T00:59:58;10.56;85.32
47861;HTU21D;33620;52.340;5.984;2023-05-17T01:02:23;10.60;85.37
47861;HTU21D;33620;52.340;5.984;2023-05-17T01:04:49;10.65;85.18
47861;HTU21D;33620;52.340;5.984;2023-05-17T01:07:15;10.68;85.42
47861;HTU21D;33620;52.340;5.984;2023-05-17T01:09:41;10.72;85.11
47861;HTU21D;33620;52.340;5.984;2023-05-17T01:12:10;10.77;85.15
47861;HTU21D;33620;52.340;5.984;2023-05-17T01:14:40;10.77;85.09
47861;HTU21D;33620;52.340;5.984;2023-05-17T01:17:11;10.79;85.21
47861;HTU21D;33620;52.340;5.984;2023-05-17T01:19:58;10.83;85.38
47861;HTU21D;33620;52.340;5.984;2023-05-17T01:22:26;10.84;85.15
47861;HTU21D;33620;52.340;5.984;2023-05-17T01:27:24;10.83;85.43
47861;HTU21D;33620;52.340;5.984;2023-05-17T01:29:50;10.81;85.53
47861;HTU21D;33620;52.340;5.984;2023-05-17T01:32:16;10.88;85.58
47861;HTU21D;33620;52.340;5.984;2023-05-17T01:34:42;10.93;85.33
47861;HTU21D;33620;52.340;5.984;2023-05-17T01:37:07;10.98;85.44
47861;HTU21D;33620;52.340;5.984;2023-05-17T01:39:32;11.00;84.82
47861;HTU21D;33620;52.340;5.984;2023-05-17T01:41:59;10.97;85.01
47861;HTU21D;33620;52.340;5.984;2023-05-17T01:47:12;10.99;85.12
47861;HTU21D;33620;52.340;5.984;2023-05-17T01:49:40;10.98;85.40
47861;HTU21D;33620;52.340;5.984;2023-05-17T01:52:12;10.98;85.10
47861;HTU21D;33620;52.340;5.984;2023-05-17T01:54:42;10.98;84.58
47861;HTU21D;33620;52.340;5.984;2023-05-17T01:57:09;10.92;83.04
47861;HTU21D;33620;52.340;5.984;2023-05-17T01:59:37;10.84;81.81
47861;HTU21D;33620;52.340;5.984;2023-05-17T02:02:02;10.82;80.69
47861;HTU21D;33620;52.340;5.984;2023-05-17T02:04:32;10.86;80.66
47861;HTU21D;33620;52.340;5.984;2023-05-17T02:06:58;10.84;79.11
47861;HTU21D;33620;52.340;5.984;2023-05-17T02:09:23;10.83;79.24
47861;HTU21D;33620;52.340;5.984;2023-05-17T02:11:48;10.87;78.97
47861;HTU21D;33620;52.340;5.984;2023-05-17T02:14:13;10.87;78.06
47861;HTU21D;33620;52.340;5.984;2023-05-17T02:16:39;10.87;78.41
47861;HTU21D;33620;52.340;5.984;2023-05-17T02:19:04;10.89;78.37
47861;HTU21D;33620;52.340;5.984;2023-05-17T02:21:31;10.88;77.19
47861;HTU21D;33620;52.340;5.984;2023-05-17T02:23:56;10.84;76.87
47861;HTU21D;33620;52.340;5.984;2023-05-17T02:26:22;10.80;76.95
47861;HTU21D;33620;52.340;5.984;2023-05-17T02:28:47;10.82;77.42
47861;HTU21D;33620;52.340;5.984;2023-05-17T02:31:12;10.83;77.19
47861;HTU21D;33620;52.340;5.984;2023-05-17T02:33:38;10.77;77.12
47861;HTU21D;33620;52.340;5.984;2023-05-17T02:36:03;10.71;77.08
47861;HTU21D;33620;52.340;5.984;2023-05-17T02:38:28;10.69;77.44
47861;HTU21D;33620;52.340;5.984;2023-05-17T02:40:54;10.68;77.44
47861;HTU21D;33620;52.340;5.984;2023-05-17T02:43:19;10.62;77.31
47861;HTU21D;33620;52.340;5.984;2023-05-17T02:45:45;10.58;77.36
47861;HTU21D;33620;52.340;5.984;2023-05-17T02:48:10;10.57;77.29
47861;HTU21D;33620;52.340;5.984;2023-05-17T02:50:35;10.53;77.44
47861;HTU21D;33620;52.340;5.984;2023-05-17T02:53:00;10.46;77.62
47861;HTU21D;33620;52.340;5.984;2023-05-17T02:55:26;10.42;77.52
47861;HTU21D;33620;52.340;5.984;2023-05-17T02:57:51;10.37;77.44
47861;HTU21D;33620;52.340;5.984;2023-05-17T03:00:16;10.33;77.79
47861;HTU21D;33620;52.340;5.984;2023-05-17T03:02:42;10.33;78.11
47861;HTU21D;33620;52.340;5.984;2023-05-17T03:05:07;10.33;77.76
47861;HTU21D;33620;52.340;5.984;2023-05-17T03:07:32;10.26;77.78
47861;HTU21D;33620;52.340;5.984;2023-05-17T03:09:58;10.23;77.81
47861;HTU21D;33620;52.340;5.984;2023-05-17T03:12:23;10.16;77.94
47861;HTU21D;33620;52.340;5.984;2023-05-17T03:14:48;10.14;78.06
47861;HTU21D;33620;52.340;5.984;2023-05-17T03:17:13;10.10;78.09
47861;HTU21D;33620;52.340;5.984;2023-05-17T03:19:39;10.07;78.36
47861;HTU21D;33620;52.340;5.984;2023-05-17T03:22:04;10.05;78.66
47861;HTU21D;33620;52.340;5.984;2023-05-17T03:24:30;10.07;78.90
47861;HTU21D;33620;52.340;5.984;2023-05-17T03:26:55;10.11;79.02
47861;HTU21D;33620;52.340;5.984;2023-05-17T03:29:20;10.12;79.19
47861;HTU21D;33620;52.340;5.984;2023-05-17T03:31:45;10.13;78.97
47861;HTU21D;33620;52.340;5.984;2023-05-17T03:34:11;10.11;78.84
47861;HTU21D;33620;52.340;5.984;2023-05-17T03:36:37;10.08;78.72
47861;HTU21D;33620;52.340;5.984;2023-05-17T03:39:03;10.05;78.88
47861;HTU21D;33620;52.340;5.984;2023-05-17T03:41:28;10.01;78.73
47861;HTU21D;33620;52.340;5.984;2023-05-17T03:43:53;9.97;78.82
47861;HTU21D;33620;52.340;5.984;2023-05-17T03:46:19;9.89;78.84
47861;HTU21D;33620;52.340;5.984;2023-05-17T03:48:44;9.82;79.04
47861;HTU21D;33620;52.340;5.984;2023-05-17T03:51:09;9.76;79.30
47861;HTU21D;33620;52.340;5.984;2023-05-17T03:53:35;9.66;79.33
47861;HTU21D;33620;52.340;5.984;2023-05-17T03:56:05;9.60;79.63
47861;HTU21D;33620;52.340;5.984;2023-05-17T03:58:30;9.52;79.80
47861;HTU21D;33620;52.340;5.984;2023-05-17T04:00:55;9.51;80.02
47861;HTU21D;33620;52.340;5.984;2023-05-17T04:03:21;9.48;80.05
47861;HTU21D;33620;52.340;5.984;2023-05-17T04:05:46;9.48;80.07
47861;HTU21D;33620;52.340;5.984;2023-05-17T04:08:11;9.40;79.94
47861;HTU21D;33620;52.340;5.984;2023-05-17T04:10:37;9.41;80.10
47861;HTU21D;33620;52.340;5.984;2023-05-17T04:13:06;9.45;80.09
47861;HTU21D;33620;52.340;5.984;2023-05-17T04:15:31;9.46;80.32
47861;HTU21D;33620;52.340;5.984;2023-05-17T04:17:56;9.45;80.36
47861;HTU21D;33620;52.340;5.984;2023-05-17T04:20:21;9.46;80.26
47861;HTU21D;33620;52.340;5.984;2023-05-17T04:22:47;9.42;80.31
47861;HTU21D;33620;52.340;5.984;2023-05-17T04:25:12;9.38;80.36
47861;HTU21D;33620;52.340;5.984;2023-05-17T04:27:37;9.36;80.23
47861;HTU21D;33620;52.340;5.984;2023-05-17T04:30:02;9.36;80.33
47861;HTU21D;33620;52.340;5.984;2023-05-17T04:32:28;9.38;80.36
47861;HTU21D;33620;52.340;5.984;2023-05-17T04:34:53;9.39;80.16
47861;HTU21D;33620;52.340;5.984;2023-05-17T04:37:20;9.38;80.23
47861;HTU21D;33620;52.340;5.984;2023-05-17T04:39:45;9.34;80.34
47861;HTU21D;33620;52.340;5.984;2023-05-17T04:42:10;9.30;80.66
47861;HTU21D;33620;52.340;5.984;2023-05-17T04:44:36;9.31;81.02
47861;HTU21D;33620;52.340;5.984;2023-05-17T04:47:01;9.33;81.07
47861;HTU21D;33620;52.340;5.984;2023-05-17T04:49:28;9.35;81.11
47861;HTU21D;33620;52.340;5.984;2023-05-17T04:51:53;9.34;80.98
47861;HTU21D;33620;52.340;5.984;2023-05-17T04:54:18;9.36;81.31
47861;HTU21D;33620;52.340;5.984;2023-05-17T04:56:43;9.37;81.10
47861;HTU21D;33620;52.340;5.984;2023-05-17T04:59:09;9.36;81.45
47861;HTU21D;33620;52.340;5.984;2023-05-17T05:01:34;9.37;81.60
47861;HTU21D;33620;52.340;5.984;2023-05-17T05:03:59;9.39;81.76
47861;HTU21D;33620;52.340;5.984;2023-05-17T05:06:24;9.44;82.07
47861;HTU21D;33620;52.340;5.984;2023-05-17T05:08:50;9.48;81.92
47861;HTU21D;33620;52.340;5.984;2023-05-17T05:11:15;9.52;81.86
47861;HTU21D;33620;52.340;5.984;2023-05-17T05:13:41;9.60;82.07
47861;HTU21D;33620;52.340;5.984;2023-05-17T05:16:06;9.67;82.03
47861;HTU21D;33620;52.340;5.984;2023-05-17T05:18:32;9.72;81.98
47861;HTU21D;33620;52.340;5.984;2023-05-17T05:20:57;9.78;82.33
47861;HTU21D;33620;52.340;5.984;2023-05-17T05:23:23;9.80;81.94
47861;HTU21D;33620;52.340;5.984;2023-05-17T05:25:48;9.84;82.17
47861;HTU21D;33620;52.340;5.984;2023-05-17T05:28:14;9.90;81.50
47861;HTU21D;33620;52.340;5.984;2023-05-17T05:30:39;9.96;81.73
47861;HTU21D;33620;52.340;5.984;2023-05-17T05:33:05;10.03;81.78
47861;HTU21D;33620;52.340;5.984;2023-05-17T05:35:30;10.12;81.04
47861;HTU21D;33620;52.340;5.984;2023-05-17T05:37:56;10.22;80.25
47861;HTU21D;33620;52.340;5.984;2023-05-17T05:40:21;10.30;79.68
47861;HTU21D;33620;52.340;5.984;2023-05-17T05:42:47;10.34;78.88
47861;HTU21D;33620;52.340;5.984;2023-05-17T05:45:12;10.38;78.06
47861;HTU21D;33620;52.340;5.984;2023-05-17T05:47:37;10.42;77.55
47861;HTU21D;33620;52.340;5.984;2023-05-17T05:50:03;10.48;77.82
47861;HTU21D;33620;52.340;5.984;2023-05-17T05:52:29;10.57;77.82
47861;HTU21D;33620;52.340;5.984;2023-05-17T05:54:54;10.66;76.78
47861;HTU21D;33620;52.340;5.984;2023-05-17T05:57:19;10.68;75.98
47861;HTU21D;33620;52.340;5.984;2023-05-17T05:59:45;10.71;76.26
47861;HTU21D;33620;52.340;5.984;2023-05-17T06:02:10;10.77;76.66
47861;HTU21D;33620;52.340;5.984;2023-05-17T06:04:36;10.81;75.78
47861;HTU21D;33620;52.340;5.984;2023-05-17T06:07:02;10.82;75.55
47861;HTU21D;33620;52.340;5.984;2023-05-17T06:09:28;10.80;74.91
47861;HTU21D;33620;52.340;5.984;2023-05-17T06:11:53;10.79;75.06
47861;HTU21D;33620;52.340;5.984;2023-05-17T06:14:18;10.73;74.73
47861;HTU21D;33620;52.340;5.984;2023-05-17T06:16:43;10.74;75.20
47861;HTU21D;33620;52.340;5.984;2023-05-17T06:19:09;10.74;72.38
47861;HTU21D;33620;52.340;5.984;2023-05-17T06:21:34;10.78;73.12
47861;HTU21D;33620;52.340;5.984;2023-05-17T06:23:59;10.83;71.80
47861;HTU21D;33620;52.340;5.984;2023-05-17T06:26:25;10.73;71.42
47861;HTU21D;33620;52.340;5.984;2023-05-17T06:28:50;10.75;70.86
47861;HTU21D;33620;52.340;5.984;2023-05-17T06:31:15;10.81;70.57
47861;HTU21D;33620;52.340;5.984;2023-05-17T06:33:40;10.86;69.96
47861;HTU21D;33620;52.340;5.984;2023-05-17T06:36:06;10.89;67.99
47861;HTU21D;33620;52.340;5.984;2023-05-17T06:38:31;10.93;67.20
47861;HTU21D;33620;52.340;5.984;2023-05-17T06:40:56;10.89;67.51
47861;HTU21D;33620;52.340;5.984;2023-05-17T06:43:22;10.95;68.22
47861;HTU21D;33620;52.340;5.984;2023-05-17T06:45:48;10.89;65.46
47861;HTU21D;33620;52.340;5.984;2023-05-17T06:48:13;10.89;66.11
47861;HTU21D;33620;52.340;5.984;2023-05-17T06:50:39;10.87;67.02
47861;HTU21D;33620;52.340;5.984;2023-05-17T06:53:04;10.83;66.74
47861;HTU21D;33620;52.340;5.984;2023-05-17T06:55:29;10.83;68.01
47861;HTU21D;33620;52.340;5.984;2023-05-17T06:57:55;10.93;69.00
47861;HTU21D;33620;52.340;5.984;2023-05-17T07:00:20;10.97;69.10
47861;HTU21D;33620;52.340;5.984;2023-05-17T07:02:45;10.95;68.05
47861;HTU21D;33620;52.340;5.984;2023-05-17T07:05:11;10.96;65.69
47861;HTU21D;33620;52.340;5.984;2023-05-17T07:07:36;11.05;67.19
47861;HTU21D;33620;52.340;5.984;2023-05-17T07:10:01;11.14;66.38
47861;HTU21D;33620;52.340;5.984;2023-05-17T07:12:27;11.22;66.80
47861;HTU21D;33620;52.340;5.984;2023-05-17T07:14:52;11.24;67.49
47861;HTU21D;33620;52.340;5.984;2023-05-17T07:17:17;11.18;66.48
47861;HTU21D;33620;52.340;5.984;2023-05-17T07:19:42;11.22;66.25
47861;HTU21D;33620;52.340;5.984;2023-05-17T07:22:08;11.28;66.31
47861;HTU21D;33620;52.340;5.984;2023-05-17T07:24:34;11.40;66.85
47861;HTU21D;33620;52.340;5.984;2023-05-17T07:26:59;11.47;66.18
47861;HTU21D;33620;52.340;5.984;2023-05-17T07:29:25;11.53;66.13
47861;HTU21D;33620;52.340;5.984;2023-05-17T07:31:50;11.59;65.39
47861;HTU21D;33620;52.340;5.984;2023-05-17T07:34:15;11.58;65.29
47861;HTU21D;33620;52.340;5.984;2023-05-17T07:36:41;11.59;65.95
47861;HTU21D;33620;52.340;5.984;2023-05-17T07:39:06;11.53;64.05
47861;HTU21D;33620;52.340;5.984;2023-05-17T07:41:32;11.45;65.23
47861;HTU21D;33620;52.340;5.984;2023-05-17T07:43:58;11.45;63.75
47861;HTU21D;33620;52.340;5.984;2023-05-17T07:46:23;11.44;63.21
47861;HTU21D;33620;52.340;5.984;2023-05-17T07:48:48;11.53;63.54
47861;HTU21D;33620;52.340;5.984;2023-05-17T07:51:14;11.58;61.47
47861;HTU21D;33620;52.340;5.984;2023-05-17T07:53:39;11.61;61.65
47861;HTU21D;33620;52.340;5.984;2023-05-17T07:56:04;11.64;60.13
47861;HTU21D;33620;52.340;5.984;2023-05-17T07:58:29;11.64;59.44
47861;HTU21D;33620;52.340;5.984;2023-05-17T08:00:55;11.59;58.82
47861;HTU21D;33620;52.340;5.984;2023-05-17T08:03:20;11.49;58.37
47861;HTU21D;33620;52.340;5.984;2023-05-17T08:05:45;11.52;58.57
47861;HTU21D;33620;52.340;5.984;2023-05-17T08:08:11;11.57;58.60
47861;HTU21D;33620;52.340;5.984;2023-05-17T08:10:36;11.58;58.38
47861;HTU21D;33620;52.340;5.984;2023-05-17T08:13:02;11.70;56.90
47861;HTU21D;33620;52.340;5.984;2023-05-17T08:15:30;11.72;57.44
47861;HTU21D;33620;52.340;5.984;2023-05-17T08:17:55;11.77;56.83
47861;HTU21D;33620;52.340;5.984;2023-05-17T08:20:21;11.91;57.13
47861;HTU21D;33620;52.340;5.984;2023-05-17T08:22:46;12.06;57.14
47861;HTU21D;33620;52.340;5.984;2023-05-17T08:25:11;12.22;57.24
47861;HTU21D;33620;52.340;5.984;2023-05-17T08:27:37;12.44;57.55
47861;HTU21D;33620;52.340;5.984;2023-05-17T08:30:02;12.37;53.84
47861;HTU21D;33620;52.340;5.984;2023-05-17T08:32:28;12.31;54.26
47861;HTU21D;33620;52.340;5.984;2023-05-17T08:34:54;12.34;54.26
47861;HTU21D;33620;52.340;5.984;2023-05-17T08:37:19;12.43;55.02
47861;HTU21D;33620;52.340;5.984;2023-05-17T08:39:45;12.62;54.97
47861;HTU21D;33620;52.340;5.984;2023-05-17T08:42:10;12.78;54.59
47861;HTU21D;33620;52.340;5.984;2023-05-17T08:44:36;12.86;53.60
47861;HTU21D;33620;52.340;5.984;2023-05-17T08:47:03;13.08;53.62
47861;HTU21D;33620;52.340;5.984;2023-05-17T08:49:29;13.20;53.88
47861;HTU21D;33620;52.340;5.984;2023-05-17T08:51:58;13.29;51.30
47861;HTU21D;33620;52.340;5.984;2023-05-17T08:54:23;13.24;52.43
47861;HTU21D;33620;52.340;5.984;2023-05-17T08:56:49;13.48;51.12
47861;HTU21D;33620;52.340;5.984;2023-05-17T08:59:16;13.58;51.24
47861;HTU21D;33620;52.340;5.984;2023-05-17T09:01:43;13.77;51.18
47861;HTU21D;33620;52.340;5.984;2023-05-17T09:04:11;13.67;50.74
47861;HTU21D;33620;52.340;5.984;2023-05-17T09:06:36;13.46;48.39
47861;HTU21D;33620;52.340;5.984;2023-05-17T09:09:03;13.30;49.55
47861;HTU21D;33620;52.340;5.984;2023-05-17T09:11:29;13.40;50.38
47861;HTU21D;33620;52.340;5.984;2023-05-17T09:13:58;13.63;51.41
47861;HTU21D;33620;52.340;5.984;2023-05-17T09:16:24;13.77;49.84
47861;HTU21D;33620;52.340;5.984;2023-05-17T09:18:53;13.94;48.46
47861;HTU21D;33620;52.340;5.984;2023-05-17T09:21:19;14.08;48.81
47861;HTU21D;33620;52.340;5.984;2023-05-17T09:23:45;14.15;47.73
47861;HTU21D;33620;52.340;5.984;2023-05-17T09:26:11;14.03;48.09
47861;HTU21D;33620;52.340;5.984;2023-05-17T09:28:40;13.97;48.86
47861;HTU21D;33620;52.340;5.984;2023-05-17T09:31:09;13.86;49.83
47861;HTU21D;33620;52.340;5.984;2023-05-17T09:33:41;13.99;47.67
47861;HTU21D;33620;52.340;5.984;2023-05-17T09:36:14;14.15;48.27
47861;HTU21D;33620;52.340;5.984;2023-05-17T09:38:39;14.27;50.18
47861;HTU21D;33620;52.340;5.984;2023-05-17T09:41:04;14.10;47.98
47861;HTU21D;33620;52.340;5.984;2023-05-17T09:43:30;13.86;48.82
47861;HTU21D;33620;52.340;5.984;2023-05-17T09:45:56;13.77;49.24
47861;HTU21D;33620;52.340;5.984;2023-05-17T09:48:23;13.79;49.08
47861;HTU21D;33620;52.340;5.984;2023-05-17T09:50:49;13.89;48.63
47861;HTU21D;33620;52.340;5.984;2023-05-17T09:53:33;13.95;50.23
47861;HTU21D;33620;52.340;5.984;2023-05-17T09:56:04;13.90;48.66
47861;HTU21D;33620;52.340;5.984;2023-05-17T09:58:33;14.07;49.52
47861;HTU21D;33620;52.340;5.984;2023-05-17T10:01:04;14.32;49.48
47861;HTU21D;33620;52.340;5.984;2023-05-17T10:03:33;14.48;48.21
47861;HTU21D;33620;52.340;5.984;2023-05-17T10:06:00;14.47;48.83
47861;HTU21D;33620;52.340;5.984;2023-05-17T10:08:26;14.41;49.78
47861;HTU21D;33620;52.340;5.984;2023-05-17T10:10:54;14.53;50.30
47861;HTU21D;33620;52.340;5.984;2023-05-17T10:13:20;14.53;51.24
47861;HTU21D;33620;52.340;5.984;2023-05-17T10:15:49;14.35;46.60
47861;HTU21D;33620;52.340;5.984;2023-05-17T10:18:14;14.35;48.77
47861;HTU21D;33620;52.340;5.984;2023-05-17T10:20:41;14.44;48.75
47861;HTU21D;33620;52.340;5.984;2023-05-17T10:23:07;14.51;47.39
47861;HTU21D;33620;52.340;5.984;2023-05-17T10:25:32;14.42;47.57
47861;HTU21D;33620;52.340;5.984;2023-05-17T10:27:58;14.45;47.95
47861;HTU21D;33620;52.340;5.984;2023-05-17T10:30:25;14.65;49.49
47861;HTU21D;33620;52.340;5.984;2023-05-17T10:32:55;14.79;47.61
47861;HTU21D;33620;52.340;5.984;2023-05-17T10:35:20;14.63;48.41
47861;HTU21D;33620;52.340;5.984;2023-05-17T10:37:46;14.44;48.92
47861;HTU21D;33620;52.340;5.984;2023-05-17T10:40:12;14.23;48.84
47861;HTU21D;33620;52.340;5.984;2023-05-17T10:42:41;14.29;49.27
47861;HTU21D;33620;52.340;5.984;2023-05-17T10:45:07;14.49;46.75
47861;HTU21D;33620;52.340;5.984;2023-05-17T10:47:33;14.62;44.13
47861;HTU21D;33620;52.340;5.984;2023-05-17T10:49:59;14.70;44.64
47861;HTU21D;33620;52.340;5.984;2023-05-17T10:52:24;14.92;44.72
47861;HTU21D;33620;52.340;5.984;2023-05-17T10:54:50;14.94;44.31
47861;HTU21D;33620;52.340;5.984;2023-05-17T10:57:17;14.85;44.25
47861;HTU21D;33620;52.340;5.984;2023-05-17T10:59:56;14.81;44.09
47861;HTU21D;33620;52.340;5.984;2023-05-17T11:02:22;14.66;43.42
47861;HTU21D;33620;52.340;5.984;2023-05-17T11:04:49;14.60;43.84
47861;HTU21D;33620;52.340;5.984;2023-05-17T11:12:39;15.14;44.64
47861;HTU21D;33620;52.340;5.984;2023-05-17T11:15:09;14.93;43.72
47861;HTU21D;33620;52.340;5.984;2023-05-17T11:25:22;14.87;44.41
47861;HTU21D;33620;52.340;5.984;2023-05-17T11:27:48;14.95;44.98
47861;HTU21D;33620;52.340;5.984;2023-05-17T11:30:19;15.06;44.29
47861;HTU21D;33620;52.340;5.984;2023-05-17T11:32:46;15.15;44.00
47861;HTU21D;33620;52.340;5.984;2023-05-17T11:35:12;15.38;44.09
47861;HTU21D;33620;52.340;5.984;2023-05-17T11:37:38;15.38;43.77
47861;HTU21D;33620;52.340;5.984;2023-05-17T11:40:07;15.13;43.52
47861;HTU21D;33620;52.340;5.984;2023-05-17T11:42:34;15.00;43.16
47861;HTU21D;33620;52.340;5.984;2023-05-17T11:45:01;15.08;44.48
47861;HTU21D;33620;52.340;5.984;2023-05-17T11:47:27;15.14;45.01
47861;HTU21D;33620;52.340;5.984;2023-05-17T11:49:55;15.30;43.92
47861;HTU21D;33620;52.340;5.984;2023-05-17T11:52:24;15.41;42.81
47861;HTU21D;33620;52.340;5.984;2023-05-17T11:54:51;15.32;43.83
47861;HTU21D;33620;52.340;5.984;2023-05-17T11:57:16;15.38;43.83
47861;HTU21D;33620;52.340;5.984;2023-05-17T11:59:42;15.38;41.33
47861;HTU21D;33620;52.340;5.984;2023-05-17T12:02:07;15.59;44.34
47861;HTU21D;33620;52.340;5.984;2023-05-17T12:04:36;15.76;43.51
47861;HTU21D;33620;52.340;5.984;2023-05-17T12:07:02;15.83;42.68
47861;HTU21D;33620;52.340;5.984;2023-05-17T12:09:28;15.87;43.26
47861;HTU21D;33620;52.340;5.984;2023-05-17T12:11:53;15.85;41.93
47861;HTU21D;33620;52.340;5.984;2023-05-17T12:14:19;16.05;43.32
47861;HTU21D;33620;52.340;5.984;2023-05-17T12:16:46;16.04;42.92
47861;HTU21D;33620;52.340;5.984;2023-05-17T12:19:18;15.84;43.65
47861;HTU21D;33620;52.340;5.984;2023-05-17T12:21:46;15.49;44.20
47861;HTU21D;33620;52.340;5.984;2023-05-17T12:24:12;15.15;44.29
47861;HTU21D;33620;52.340;5.984;2023-05-17T12:26:43;15.36;46.54
47861;HTU21D;33620;52.340;5.984;2023-05-17T12:29:09;15.57;45.89
47861;HTU21D;33620;52.340;5.984;2023-05-17T12:34:00;15.78;43.82
47861;HTU21D;33620;52.340;5.984;2023-05-17T12:36:27;15.91;45.35
47861;HTU21D;33620;52.340;5.984;2023-05-17T12:38:54;15.84;44.16
47861;HTU21D;33620;52.340;5.984;2023-05-17T12:41:19;15.75;45.08
47861;HTU21D;33620;52.340;5.984;2023-05-17T12:43:46;15.69;44.74
47861;HTU21D;33620;52.340;5.984;2023-05-17T12:46:12;15.54;45.50
47861;HTU21D;33620;52.340;5.984;2023-05-17T12:48:39;15.56;44.93
47861;HTU21D;33620;52.340;5.984;2023-05-17T12:51:08;15.72;42.84
47861;HTU21D;33620;52.340;5.984;2023-05-17T12:53:36;15.74;43.87
47861;HTU21D;33620;52.340;5.984;2023-05-17T12:56:01;15.68;44.15
47861;HTU21D;33620;52.340;5.984;2023-05-17T12:58:27;15.93;44.79
47861;HTU21D;33620;52.340;5.984;2023-05-17T13:00:56;16.02;42.98
47861;HTU21D;33620;52.340;5.984;2023-05-17T13:03:21;16.02;44.22
47861;HTU21D;33620;52.340;5.984;2023-05-17T13:05:56;16.00;43.24
47861;HTU21D;33620;52.340;5.984;2023-05-17T13:08:21;15.95;43.55
47861;HTU21D;33620;52.340;5.984;2023-05-17T13:10:46;15.77;42.77
47861;HTU21D;33620;52.340;5.984;2023-05-17T13:13:16;15.61;43.20
47861;HTU21D;33620;52.340;5.984;2023-05-17T13:15:44;15.70;43.77
47861;HTU21D;33620;52.340;5.984;2023-05-17T13:18:13;15.70;43.60
47861;HTU21D;33620;52.340;5.984;2023-05-17T13:20:42;15.56;44.85
47861;HTU21D;33620;52.340;5.984;2023-05-17T13:23:08;15.56;44.35
47861;HTU21D;33620;52.340;5.984;2023-05-17T13:25:33;15.51;43.88
47861;HTU21D;33620;52.340;5.984;2023-05-17T13:28:00;15.37;43.95
47861;HTU21D;33620;52.340;5.984;2023-05-17T13:30:26;15.51;44.03
47861;HTU21D;33620;52.340;5.984;2023-05-17T13:32:51;15.69;44.39
47861;HTU21D;33620;52.340;5.984;2023-05-17T13:35:18;15.75;43.60
47861;HTU21D;33620;52.340;5.984;2023-05-17T13:37:43;15.76;44.71
47861;HTU21D;33620;52.340;5.984;2023-05-17T13:40:09;15.81;42.00
47861;HTU21D;33620;52.340;5.984;2023-05-17T13:42:34;15.98;43.00
47861;HTU21D;33620;52.340;5.984;2023-05-17T13:45:00;15.92;40.59
47861;HTU21D;33620;52.340;5.984;2023-05-17T13:47:26;15.97;42.98
47861;HTU21D;33620;52.340;5.984;2023-05-17T13:49:54;15.91;42.96
47861;HTU21D;33620;52.340;5.984;2023-05-17T13:52:19;16.05;41.64
47861;HTU21D;33620;52.340;5.984;2023-05-17T13:54:44;16.24;42.38
47861;HTU21D;33620;52.340;5.984;2023-05-17T13:57:10;16.44;43.70
47861;HTU21D;33620;52.340;5.984;2023-05-17T13:59:35;16.63;42.02
47861;HTU21D;33620;52.340;5.984;2023-05-17T14:02:00;16.70;39.61
47861;HTU21D;33620;52.340;5.984;2023-05-17T14:04:26;16.69;40.50
47861;HTU21D;33620;52.340;5.984;2023-05-17T14:06:51;16.64;39.97
47861;HTU21D;33620;52.340;5.984;2023-05-17T14:09:16;16.61;39.41
47861;HTU21D;33620;52.340;5.984;2023-05-17T14:11:42;16.49;39.35
47861;HTU21D;33620;52.340;5.984;2023-05-17T14:14:07;16.57;38.66
47861;HTU21D;33620;52.340;5.984;2023-05-17T14:16:32;16.58;38.60
47861;HTU21D;33620;52.340;5.984;2023-05-17T14:18:58;16.56;39.29
47861;HTU21D;33620;52.340;5.984;2023-05-17T14:21:23;16.63;39.85
47861;HTU21D;33620;52.340;5.984;2023-05-17T14:23:49;16.71;40.60
47861;HTU21D;33620;52.340;5.984;2023-05-17T14:26:14;16.69;40.32
47861;HTU21D;33620;52.340;5.984;2023-05-17T14:28:39;16.76;39.83
47861;HTU21D;33620;52.340;5.984;2023-05-17T14:31:05;16.76;40.23
47861;HTU21D;33620;52.340;5.984;2023-05-17T14:33:31;16.85;40.18
47861;HTU21D;33620;52.340;5.984;2023-05-17T14:35:56;16.85;38.76
47861;HTU21D;33620;52.340;5.984;2023-05-17T14:38:21;16.74;39.49
47861;HTU21D;33620;52.340;5.984;2023-05-17T14:40:47;16.67;41.80
47861;HTU21D;33620;52.340;5.984;2023-05-17T14:43:12;16.36;41.50
47861;HTU21D;33620;52.340;5.984;2023-05-17T14:45:37;16.31;40.84
47861;HTU21D;33620;52.340;5.984;2023-05-17T14:48:03;16.37;41.20
47861;HTU21D;33620;52.340;5.984;2023-05-17T14:50:28;16.21;40.94
47861;HTU21D;33620;52.340;5.984;2023-05-17T14:52:56;16.08;40.74
47861;HTU21D;33620;52.340;5.984;2023-05-17T14:55:21;15.97;40.94
47861;HTU21D;33620;52.340;5.984;2023-05-17T14:57:48;16.13;40.92
47861;HTU21D;33620;52.340;5.984;2023-05-17T15:00:16;16.11;39.85
47861;HTU21D;33620;52.340;5.984;2023-05-17T15:02:41;16.12;42.36
47861;HTU21D;33620;52.340;5.984;2023-05-17T15:05:07;16.17;38.95
47861;HTU21D;33620;52.340;5.984;2023-05-17T15:07:32;16.14;39.78
47861;HTU21D;33620;52.340;5.984;2023-05-17T15:09:58;16.32;41.25
47861;HTU21D;33620;52.340;5.984;2023-05-17T15:12:23;16.49;41.10
47861;HTU21D;33620;52.340;5.984;2023-05-17T15:14:49;16.36;38.67
47861;HTU21D;33620;52.340;5.984;2023-05-17T15:17:14;16.29;40.01
47861;HTU21D;33620;52.340;5.984;2023-05-17T15:19:41;16.25;40.53
47861;HTU21D;33620;52.340;5.984;2023-05-17T15:22:06;16.28;39.64
47861;HTU21D;33620;52.340;5.984;2023-05-17T15:24:31;16.41;41.20
47861;HTU21D;33620;52.340;5.984;2023-05-17T15:26:57;16.39;41.33
47861;HTU21D;33620;52.340;5.984;2023-05-17T15:29:23;16.24;42.13
47861;HTU21D;33620;52.340;5.984;2023-05-17T15:31:49;16.26;40.69